This is the latest recevied weather packets stored in our database for station/object HJ3GNC-11. If no packets are shown the sender has not sent any weather packets the latest 10 day(s).
| Time | Temp. | Humidity | Pressure | Rain* | Wind** | Luminosity | Snow |
|---|---|---|---|---|---|---|---|
| 1777519660 | 12.22° C | 89% | 1018 hPa | 0 mm | - | - | - |
| 1777518720 | 12.22° C | 89% | 1018 hPa | 0 mm | - | - | - |
| 1777517775 | 12.22° C | 90% | 1018 hPa | 0 mm | - | - | - |
| 1777516831 | 11.11° C | 90% | 1018 hPa | 0 mm | - | - | - |
| 1777515889 | 12.78° C | 88% | 1017 hPa | 0 mm | - | - | - |
| 1777514947 | 12.78° C | 89% | 1017 hPa | 0 mm | - | - | - |
| 1777514001 | 12.78° C | 90% | 1017 hPa | 0 mm | - | - | - |
| 1777513059 | 12.78° C | 89% | 1017 hPa | 0 mm | - | - | - |
| 1777512118 | 12.78° C | 87% | 1016 hPa | 0 mm | - | - | - |
| 1777511173 | 12.78° C | 87% | 1016 hPa | 0 mm | - | - | - |
| 1777510226 | 13.33° C | 88% | 1016 hPa | 0 mm | - | - | - |
| 1777509283 | 12.22° C | 88% | 1015 hPa | 0 mm | - | - | - |
| 1777508341 | 14.44° C | 86% | 1014 hPa | 0 mm | - | - | - |
| 1777507391 | 13.33° C | 86% | 1014 hPa | 0 mm | - | - | - |
| 1777506441 | 14.44° C | 84% | 1014 hPa | 0 mm | - | - | - |
| 1777505482 | 13.33° C | 84% | 1014 hPa | 0 mm | - | - | - |
| 1777504539 | 15.56° C | 80% | 1013 hPa | 0 mm | - | - | - |
| 1777503596 | 14.44° C | 80% | 1013 hPa | 0 mm | - | - | - |
| 1777502655 | 17.22° C | 75% | 1012 hPa | 0 mm | - | - | - |
| 1777501712 | 16.11° C | 75% | 1011 hPa | 0 mm | - | - | - |
| 1777500768 | 15° C | 75% | 1011 hPa | 0 mm | - | - | - |
| 1777498866 | 17.22° C | 75% | 1011 hPa | 0 mm | - | - | - |
| 1777497916 | 16.11° C | 75% | 1011 hPa | 0 mm | - | - | - |
| 1777496975 | 15° C | 75% | 1011 hPa | 0 mm | - | - | - |
| 1777496033 | 17.22° C | 76% | 1011 hPa | 0 mm | - | - | - |
* Rain latest hour (hover to see other rain measurements)
** Current wind speed in m/s (hover to see current wind gust speed)